Lawton, OK

1:25 PM CDT on May 05, 2015 (GMT -0500)
Old Town North | | Change Station
CLOSE
Current Station
Personal Weather Station
Location: Lawton, OK
Elevation: 1168 ft
Nearby Weather Stations

Elev 1168 ft 34.61 °N, 98.41 °W | Updated 2 minutes ago

Light Rain
Light Rain Mist
63.5 °F
Feels Like 63.5 °F
N
6.3
Wind Variable Wind from SSE

Today
High -- | Low -- °F
--% Chance of Precip.
Yesterday
High -- | Low -- °F
Precip. -- in
6:39 AM 8:21 PM
Full, 97% visible
Pressure 29.96 in
Visibility 2.5 miles
Clouds Scattered Clouds 500 ft
Overcast 3200 ft
Dew Point 61 °F
Humidity 92%
Rainfall 0.25 in
Snow Depth Not available.
UV 4 out of 12
Pollen 7.20 out of 12
Air Quality Not available.
Flu Activity Local Activity
SPECI KFSI 051819Z AUTO 12014KT 2 1/2SM -RA BR SCT005 OVC032 18/18 A2996 RMK AO2 VIS 2V2 1/2

More Conditions Fewer Conditions

Pressure 29.96 in
Visibility 2.5 miles
Clouds Scattered Clouds 500 ft
Overcast 3200 ft
Dew Point 61 °F
Humidity 92%
Rainfall 0.25 in
Snow Depth Not available.
UV 4 out of 12
Pollen 7.20 out of 12
Air Quality Not available.
Flu Activity Local Activity
SPECI KFSI 051819Z AUTO 12014KT 2 1/2SM -RA BR SCT005 OVC032 18/18 A2996 RMK AO2 VIS 2V2 1/2

More Conditions Fewer Conditions

10-Day Weather Forecast

Almanac

Astronomy

May. 05, 2015 Rise Set
Actual Time
Civil Twilight
Nautical Twilight
Astronomical Twilight
Moon
Length of Visible Light
Length of Day
Tomorrow will be .
, % of the Moon is Illuminated

Today's Extremes

State Highs State Lows

Community

WunderPhotos

Upload Photos

1,818,951 photos uploaded!

WunderBlogs® & News

Nearby

Air Quality

  Air Quality AQ Index Pollutant
Not available.

Snow Depth

Station Depth Elevation

Earthquake Activity

City Distance Mag. Time & Date
Minimum magnitude displayed is 2.5.

Coastal Water Temperatures

Place Temperature

Stations

Nearby Weather Stations

Station Location Temp. Windchill Dew Point Humidity Wind Precip. Elev Updated Type